sensor_id;sensor_type;location;lat;lon;timestamp;pressure;altitude;pressure_sealevel;temperature
15701;BMP180;7950;42.744;23.174;2023-02-15T00:02:03;65556.66;;;-139.30
15701;BMP180;7950;42.744;23.174;2023-02-15T00:04:32;65556.66;;;-139.30
15701;BMP180;7950;42.744;23.174;2023-02-15T00:07:16;65556.66;;;-139.30
15701;BMP180;7950;42.744;23.174;2023-02-15T00:09:45;65556.66;;;-139.30
15701;BMP180;7950;42.744;23.174;2023-02-15T00:12:15;65556.66;;;-139.30
15701;BMP180;7950;42.744;23.174;2023-02-15T00:14:47;65556.66;;;-139.30
15701;BMP180;7950;42.744;23.174;2023-02-15T00:18:05;65556.66;;;-139.30
15701;BMP180;7950;42.744;23.174;2023-02-15T00:20:34;65556.66;;;-139.30
15701;BMP180;7950;42.744;23.174;2023-02-15T00:23:03;65556.66;;;-139.30
15701;BMP180;7950;42.744;23.174;2023-02-15T00:25:31;65556.66;;;-139.30
15701;BMP180;7950;42.744;23.174;2023-02-15T00:28:00;65556.66;;;-139.30
15701;BMP180;7950;42.744;23.174;2023-02-15T00:30:30;65556.66;;;-139.30
15701;BMP180;7950;42.744;23.174;2023-02-15T00:33:25;65556.66;;;-139.30
15701;BMP180;7950;42.744;23.174;2023-02-15T00:35:56;65556.66;;;-139.30
15701;BMP180;7950;42.744;23.174;2023-02-15T00:38:26;65556.66;;;-139.30
15701;BMP180;7950;42.744;23.174;2023-02-15T00:40:57;65556.66;;;-139.30
15701;BMP180;7950;42.744;23.174;2023-02-15T00:43:27;65556.66;;;-139.30
15701;BMP180;7950;42.744;23.174;2023-02-15T00:45:57;65556.66;;;-139.30
15701;BMP180;7950;42.744;23.174;2023-02-15T00:48:27;65556.66;;;-139.30
15701;BMP180;7950;42.744;23.174;2023-02-15T00:50:57;65556.66;;;-139.30
15701;BMP180;7950;42.744;23.174;2023-02-15T00:53:28;65556.66;;;-139.30
15701;BMP180;7950;42.744;23.174;2023-02-15T00:55:57;65556.66;;;-139.30
15701;BMP180;7950;42.744;23.174;2023-02-15T00:58:26;65556.66;;;-139.30
15701;BMP180;7950;42.744;23.174;2023-02-15T01:00:54;65556.66;;;-139.30
15701;BMP180;7950;42.744;23.174;2023-02-15T01:03:24;65556.66;;;-139.30
15701;BMP180;7950;42.744;23.174;2023-02-15T01:05:53;65556.66;;;-139.30
15701;BMP180;7950;42.744;23.174;2023-02-15T01:08:21;65556.66;;;-139.30
15701;BMP180;7950;42.744;23.174;2023-02-15T01:10:50;65556.66;;;-139.30
15701;BMP180;7950;42.744;23.174;2023-02-15T01:13:19;65556.66;;;-139.30
15701;BMP180;7950;42.744;23.174;2023-02-15T01:15:53;65556.66;;;-139.30
15701;BMP180;7950;42.744;23.174;2023-02-15T01:18:23;65556.66;;;-139.30
15701;BMP180;7950;42.744;23.174;2023-02-15T01:20:52;65556.66;;;-139.30
15701;BMP180;7950;42.744;23.174;2023-02-15T01:23:21;65556.66;;;-139.30
15701;BMP180;7950;42.744;23.174;2023-02-15T01:25:50;65556.66;;;-139.30
15701;BMP180;7950;42.744;23.174;2023-02-15T01:28:18;65556.66;;;-139.30
15701;BMP180;7950;42.744;23.174;2023-02-15T01:30:47;65556.66;;;-139.30
15701;BMP180;7950;42.744;23.174;2023-02-15T01:33:15;65556.66;;;-139.30
15701;BMP180;7950;42.744;23.174;2023-02-15T01:35:47;65556.66;;;-139.30
15701;BMP180;7950;42.744;23.174;2023-02-15T01:38:15;65556.66;;;-139.30
15701;BMP180;7950;42.744;23.174;2023-02-15T01:40:44;65556.66;;;-139.30
15701;BMP180;7950;42.744;23.174;2023-02-15T01:43:13;65556.66;;;-139.30
15701;BMP180;7950;42.744;23.174;2023-02-15T01:45:42;65556.66;;;-139.30
15701;BMP180;7950;42.744;23.174;2023-02-15T01:48:20;65556.66;;;-139.30
15701;BMP180;7950;42.744;23.174;2023-02-15T01:50:56;65556.66;;;-139.30
15701;BMP180;7950;42.744;23.174;2023-02-15T01:53:31;65556.66;;;-139.30
15701;BMP180;7950;42.744;23.174;2023-02-15T01:56:05;65556.66;;;-139.30
15701;BMP180;7950;42.744;23.174;2023-02-15T01:58:36;65556.66;;;-139.30
15701;BMP180;7950;42.744;23.174;2023-02-15T02:01:08;65556.66;;;-139.30
15701;BMP180;7950;42.744;23.174;2023-02-15T02:03:49;65556.66;;;-139.30
15701;BMP180;7950;42.744;23.174;2023-02-15T02:06:21;65556.66;;;-139.30
15701;BMP180;7950;42.744;23.174;2023-02-15T02:08:54;65556.66;;;-139.30
15701;BMP180;7950;42.744;23.174;2023-02-15T02:11:23;65556.66;;;-139.30
15701;BMP180;7950;42.744;23.174;2023-02-15T02:13:54;65556.66;;;-139.30
15701;BMP180;7950;42.744;23.174;2023-02-15T02:16:29;65556.66;;;-139.30
15701;BMP180;7950;42.744;23.174;2023-02-15T02:19:26;65556.66;;;-139.30
15701;BMP180;7950;42.744;23.174;2023-02-15T02:25:33;65556.66;;;-139.30
15701;BMP180;7950;42.744;23.174;2023-02-15T02:28:41;65556.66;;;-139.30
15701;BMP180;7950;42.744;23.174;2023-02-15T02:31:43;65556.66;;;-139.30
15701;BMP180;7950;42.744;23.174;2023-02-15T02:34:25;65556.66;;;-139.30
15701;BMP180;7950;42.744;23.174;2023-02-15T02:37:07;65556.66;;;-139.30
15701;BMP180;7950;42.744;23.174;2023-02-15T02:39:47;65556.66;;;-139.30
15701;BMP180;7950;42.744;23.174;2023-02-15T02:42:27;65556.66;;;-139.30
15701;BMP180;7950;42.744;23.174;2023-02-15T02:45:03;65556.66;;;-139.30
15701;BMP180;7950;42.744;23.174;2023-02-15T02:47:40;65556.66;;;-139.30
15701;BMP180;7950;42.744;23.174;2023-02-15T02:50:15;65556.66;;;-139.30
15701;BMP180;7950;42.744;23.174;2023-02-15T02:52:46;65556.66;;;-139.30
15701;BMP180;7950;42.744;23.174;2023-02-15T02:55:20;65556.66;;;-139.30
15701;BMP180;7950;42.744;23.174;2023-02-15T02:57:55;65556.66;;;-139.30
15701;BMP180;7950;42.744;23.174;2023-02-15T03:00:30;65556.66;;;-139.30
15701;BMP180;7950;42.744;23.174;2023-02-15T03:03:06;65556.66;;;-139.30
15701;BMP180;7950;42.744;23.174;2023-02-15T03:05:41;65556.66;;;-139.30
15701;BMP180;7950;42.744;23.174;2023-02-15T03:08:14;65556.66;;;-139.30
15701;BMP180;7950;42.744;23.174;2023-02-15T03:10:51;65556.66;;;-139.30
15701;BMP180;7950;42.744;23.174;2023-02-15T03:13:21;65556.66;;;-139.30
15701;BMP180;7950;42.744;23.174;2023-02-15T03:15:52;65556.66;;;-139.30
15701;BMP180;7950;42.744;23.174;2023-02-15T03:18:43;65556.66;;;-139.30
15701;BMP180;7950;42.744;23.174;2023-02-15T03:21:26;65556.66;;;-139.30
15701;BMP180;7950;42.744;23.174;2023-02-15T03:24:04;65556.66;;;-139.30
15701;BMP180;7950;42.744;23.174;2023-02-15T03:26:37;65556.66;;;-139.30
15701;BMP180;7950;42.744;23.174;2023-02-15T03:29:09;65556.66;;;-139.30
15701;BMP180;7950;42.744;23.174;2023-02-15T03:31:43;65556.66;;;-139.30
15701;BMP180;7950;42.744;23.174;2023-02-15T03:34:15;65556.66;;;-139.30
15701;BMP180;7950;42.744;23.174;2023-02-15T03:36:52;65556.66;;;-139.30
15701;BMP180;7950;42.744;23.174;2023-02-15T03:39:31;65556.66;;;-139.30
15701;BMP180;7950;42.744;23.174;2023-02-15T03:42:10;65556.66;;;-139.30
15701;BMP180;7950;42.744;23.174;2023-02-15T03:44:50;65556.66;;;-139.30
15701;BMP180;7950;42.744;23.174;2023-02-15T03:47:25;65556.66;;;-139.30
15701;BMP180;7950;42.744;23.174;2023-02-15T03:50:00;65556.66;;;-139.30
15701;BMP180;7950;42.744;23.174;2023-02-15T03:52:34;65556.66;;;-139.30
15701;BMP180;7950;42.744;23.174;2023-02-15T03:55:02;65556.66;;;-139.30
15701;BMP180;7950;42.744;23.174;2023-02-15T03:57:35;65556.66;;;-139.30
15701;BMP180;7950;42.744;23.174;2023-02-15T04:00:42;65556.66;;;-139.30
15701;BMP180;7950;42.744;23.174;2023-02-15T04:03:38;65556.66;;;-139.30
15701;BMP180;7950;42.744;23.174;2023-02-15T04:06:07;65556.66;;;-139.30
15701;BMP180;7950;42.744;23.174;2023-02-15T04:08:37;65556.66;;;-139.30
15701;BMP180;7950;42.744;23.174;2023-02-15T04:11:23;65556.66;;;-139.30
15701;BMP180;7950;42.744;23.174;2023-02-15T04:13:52;65556.66;;;-139.30
15701;BMP180;7950;42.744;23.174;2023-02-15T04:16:24;65556.66;;;-139.30
15701;BMP180;7950;42.744;23.174;2023-02-15T04:18:51;65556.66;;;-139.30
15701;BMP180;7950;42.744;23.174;2023-02-15T04:21:37;65556.66;;;-139.30
15701;BMP180;7950;42.744;23.174;2023-02-15T04:24:25;65556.66;;;-139.30
15701;BMP180;7950;42.744;23.174;2023-02-15T04:27:10;65556.66;;;-139.30
15701;BMP180;7950;42.744;23.174;2023-02-15T04:29:39;65556.66;;;-139.30
15701;BMP180;7950;42.744;23.174;2023-02-15T04:32:08;65556.66;;;-139.30
15701;BMP180;7950;42.744;23.174;2023-02-15T04:34:36;65556.66;;;-139.30
15701;BMP180;7950;42.744;23.174;2023-02-15T04:37:30;65556.66;;;-139.30
15701;BMP180;7950;42.744;23.174;2023-02-15T04:40:00;65556.66;;;-139.30
15701;BMP180;7950;42.744;23.174;2023-02-15T04:42:29;65556.66;;;-139.30
15701;BMP180;7950;42.744;23.174;2023-02-15T04:44:58;65556.66;;;-139.30
15701;BMP180;7950;42.744;23.174;2023-02-15T04:47:26;65556.66;;;-139.30
15701;BMP180;7950;42.744;23.174;2023-02-15T04:49:55;65556.66;;;-139.30
15701;BMP180;7950;42.744;23.174;2023-02-15T04:52:24;65556.66;;;-139.30
15701;BMP180;7950;42.744;23.174;2023-02-15T04:54:53;65556.66;;;-139.30
15701;BMP180;7950;42.744;23.174;2023-02-15T04:57:23;65556.66;;;-139.30
15701;BMP180;7950;42.744;23.174;2023-02-15T04:59:51;65556.66;;;-139.30
15701;BMP180;7950;42.744;23.174;2023-02-15T05:02:20;65556.66;;;-139.30
15701;BMP180;7950;42.744;23.174;2023-02-15T05:04:48;65556.66;;;-139.30
15701;BMP180;7950;42.744;23.174;2023-02-15T05:07:17;65556.66;;;-139.30
15701;BMP180;7950;42.744;23.174;2023-02-15T05:09:47;65556.66;;;-139.30
15701;BMP180;7950;42.744;23.174;2023-02-15T05:12:16;65556.66;;;-139.30
15701;BMP180;7950;42.744;23.174;2023-02-15T05:14:45;65556.66;;;-139.30
15701;BMP180;7950;42.744;23.174;2023-02-15T05:17:14;65556.66;;;-139.30
15701;BMP180;7950;42.744;23.174;2023-02-15T05:19:42;65556.66;;;-139.30
15701;BMP180;7950;42.744;23.174;2023-02-15T05:22:11;65556.66;;;-139.30
15701;BMP180;7950;42.744;23.174;2023-02-15T05:24:39;65556.66;;;-139.30
15701;BMP180;7950;42.744;23.174;2023-02-15T05:39:04;95684.47;;;2.37
15701;BMP180;7950;42.744;23.174;2023-02-15T05:41:34;95688.28;;;2.41
15701;BMP180;7950;42.744;23.174;2023-02-15T05:44:02;95691.00;;;2.47
15701;BMP180;7950;42.744;23.174;2023-02-15T05:46:31;95700.75;;;2.45
15701;BMP180;7950;42.744;23.174;2023-02-15T05:49:00;95696.72;;;2.43
15701;BMP180;7950;42.744;23.174;2023-02-15T05:51:28;95697.88;;;2.40
15701;BMP180;7950;42.744;23.174;2023-02-15T05:53:57;95693.44;;;2.49
15701;BMP180;7950;42.744;23.174;2023-02-15T05:56:27;95697.34;;;2.45
15701;BMP180;7950;42.744;23.174;2023-02-15T05:58:55;95697.88;;;2.40
15701;BMP180;7950;42.744;23.174;2023-02-15T06:01:23;95693.03;;;2.29
15701;BMP180;7950;42.744;23.174;2023-02-15T06:03:52;95699.38;;;2.27
15701;BMP180;7950;42.744;23.174;2023-02-15T06:06:21;95701.63;;;2.30
15701;BMP180;7950;42.744;23.174;2023-02-15T06:08:50;95703.63;;;2.20
15701;BMP180;7950;42.744;23.174;2023-02-15T06:11:18;95703.25;;;2.31
15701;BMP180;7950;42.744;23.174;2023-02-15T06:13:48;95710.38;;;2.29
15701;BMP180;7950;42.744;23.174;2023-02-15T06:16:16;95709.72;;;2.27
15701;BMP180;7950;42.744;23.174;2023-02-15T06:18:49;95711.69;;;2.25
15701;BMP180;7950;42.744;23.174;2023-02-15T06:21:19;95717.84;;;2.24
15701;BMP180;7950;42.744;23.174;2023-02-15T06:23:48;95711.72;;;2.17
15701;BMP180;7950;42.744;23.174;2023-02-15T06:26:17;95710.44;;;2.13
15701;BMP180;7950;42.744;23.174;2023-02-15T06:28:45;95716.25;;;2.15
15701;BMP180;7950;42.744;23.174;2023-02-15T06:31:15;95715.28;;;2.16
15701;BMP180;7950;42.744;23.174;2023-02-15T06:33:44;95712.69;;;2.16
15701;BMP180;7950;42.744;23.174;2023-02-15T06:36:12;95711.38;;;2.20
15701;BMP180;7950;42.744;23.174;2023-02-15T06:38:40;95714.97;;;2.19
15701;BMP180;7950;42.744;23.174;2023-02-15T06:41:09;95718.31;;;2.27
15701;BMP180;7950;42.744;23.174;2023-02-15T06:43:37;95717.00;;;2.31
15701;BMP180;7950;42.744;23.174;2023-02-15T06:46:07;95706.63;;;2.39
15701;BMP180;7950;42.744;23.174;2023-02-15T06:48:37;95714.81;;;2.51
15701;BMP180;7950;42.744;23.174;2023-02-15T06:51:05;95703.78;;;2.57
15701;BMP180;7950;42.744;23.174;2023-02-15T06:53:34;95709.28;;;2.54
15701;BMP180;7950;42.744;23.174;2023-02-15T06:56:11;95714.13;;;2.57
15701;BMP180;7950;42.744;23.174;2023-02-15T06:58:41;95712.34;;;2.57
15701;BMP180;7950;42.744;23.174;2023-02-15T07:01:10;95710.84;;;2.63
15701;BMP180;7950;42.744;23.174;2023-02-15T07:03:39;95718.41;;;2.72
15701;BMP180;7950;42.744;23.174;2023-02-15T07:06:08;95712.44;;;2.72
15701;BMP180;7950;42.744;23.174;2023-02-15T07:08:40;95715.66;;;2.74
15701;BMP180;7950;42.744;23.174;2023-02-15T07:11:09;95714.00;;;2.81
15701;BMP180;7950;42.744;23.174;2023-02-15T07:13:55;95723.22;;;2.83
15701;BMP180;7950;42.744;23.174;2023-02-15T07:16:24;95721.72;;;2.89
15701;BMP180;7950;42.744;23.174;2023-02-15T07:18:53;95726.06;;;2.96
15701;BMP180;7950;42.744;23.174;2023-02-15T07:21:22;95715.63;;;3.04
15701;BMP180;7950;42.744;23.174;2023-02-15T07:23:50;95723.53;;;3.11
15701;BMP180;7950;42.744;23.174;2023-02-15T07:26:19;95724.34;;;3.11
15701;BMP180;7950;42.744;23.174;2023-02-15T07:28:48;95720.88;;;3.19
15701;BMP180;7950;42.744;23.174;2023-02-15T07:31:17;95719.03;;;3.27
15701;BMP180;7950;42.744;23.174;2023-02-15T07:33:45;95712.22;;;3.26
15701;BMP180;7950;42.744;23.174;2023-02-15T07:36:15;95708.94;;;3.32
15701;BMP180;7950;42.744;23.174;2023-02-15T07:38:43;95716.56;;;3.34
15701;BMP180;7950;42.744;23.174;2023-02-15T07:41:14;95725.25;;;3.41
15701;BMP180;7950;42.744;23.174;2023-02-15T07:43:45;95715.31;;;3.44
15701;BMP180;7950;42.744;23.174;2023-02-15T07:46:15;95709.44;;;3.50
15701;BMP180;7950;42.744;23.174;2023-02-15T07:48:45;95713.13;;;3.56
15701;BMP180;7950;42.744;23.174;2023-02-15T07:51:15;95703.13;;;3.67
15701;BMP180;7950;42.744;23.174;2023-02-15T07:53:44;95701.34;;;3.68
15701;BMP180;7950;42.744;23.174;2023-02-15T07:56:15;95704.03;;;3.74
15701;BMP180;7950;42.744;23.174;2023-02-15T07:58:43;95698.31;;;3.79
15701;BMP180;7950;42.744;23.174;2023-02-15T08:01:26;95696.59;;;3.86
15701;BMP180;7950;42.744;23.174;2023-02-15T08:03:55;95694.28;;;3.91
15701;BMP180;7950;42.744;23.174;2023-02-15T08:06:31;95698.50;;;3.92
15701;BMP180;7950;42.744;23.174;2023-02-15T08:09:03;95700.19;;;3.85
15701;BMP180;7950;42.744;23.174;2023-02-15T08:11:34;95697.53;;;3.93
15701;BMP180;7950;42.744;23.174;2023-02-15T08:14:29;95701.72;;;3.94
15701;BMP180;7950;42.744;23.174;2023-02-15T08:17:49;95709.53;;;4.08
15701;BMP180;7950;42.744;23.174;2023-02-15T08:20:17;95711.22;;;4.16
15701;BMP180;7950;42.744;23.174;2023-02-15T08:22:47;95716.75;;;4.13
15701;BMP180;7950;42.744;23.174;2023-02-15T08:25:20;95714.56;;;4.24
15701;BMP180;7950;42.744;23.174;2023-02-15T08:27:49;95707.97;;;4.43
15701;BMP180;7950;42.744;23.174;2023-02-15T08:30:18;95720.53;;;4.54
15701;BMP180;7950;42.744;23.174;2023-02-15T08:32:46;95720.53;;;4.54
15701;BMP180;7950;42.744;23.174;2023-02-15T08:35:15;95719.47;;;4.48
15701;BMP180;7950;42.744;23.174;2023-02-15T08:37:44;95718.63;;;4.48
15701;BMP180;7950;42.744;23.174;2023-02-15T08:40:14;95717.84;;;4.62
15701;BMP180;7950;42.744;23.174;2023-02-15T08:42:43;95713.41;;;4.77
15701;BMP180;7950;42.744;23.174;2023-02-15T08:45:12;95723.47;;;5.01
15701;BMP180;7950;42.744;23.174;2023-02-15T08:47:40;95724.06;;;5.17
15701;BMP180;7950;42.744;23.174;2023-02-15T08:50:09;95722.13;;;5.26
15701;BMP180;7950;42.744;23.174;2023-02-15T08:52:38;95725.72;;;5.25
15701;BMP180;7950;42.744;23.174;2023-02-15T08:55:07;95711.84;;;5.18
15701;BMP180;7950;42.744;23.174;2023-02-15T08:57:36;95711.31;;;5.43
15701;BMP180;7950;42.744;23.174;2023-02-15T09:00:07;95717.41;;;5.36
15701;BMP180;7950;42.744;23.174;2023-02-15T09:02:36;95718.59;;;5.33
15701;BMP180;7950;42.744;23.174;2023-02-15T09:05:06;95722.25;;;5.39
15701;BMP180;7950;42.744;23.174;2023-02-15T09:07:34;95719.53;;;5.26
15701;BMP180;7950;42.744;23.174;2023-02-15T09:10:04;95725.97;;;5.30
15701;BMP180;7950;42.744;23.174;2023-02-15T09:12:32;95725.72;;;5.25
15701;BMP180;7950;42.744;23.174;2023-02-15T09:15:02;95716.44;;;5.37
15701;BMP180;7950;42.744;23.174;2023-02-15T09:17:31;95718.91;;;5.45
15701;BMP180;7950;42.744;23.174;2023-02-15T09:19:59;95719.84;;;5.37
15701;BMP180;7950;42.744;23.174;2023-02-15T09:22:32;95726.84;;;5.37
15701;BMP180;7950;42.744;23.174;2023-02-15T09:25:00;95720.53;;;5.25
15701;BMP180;7950;42.744;23.174;2023-02-15T09:27:29;95714.06;;;5.21
15701;BMP180;7950;42.744;23.174;2023-02-15T09:29:58;95724.19;;;5.30
15701;BMP180;7950;42.744;23.174;2023-02-15T09:32:28;95738.88;;;5.38
15701;BMP180;7950;42.744;23.174;2023-02-15T09:34:56;95734.78;;;5.29
15701;BMP180;7950;42.744;23.174;2023-02-15T09:37:25;95731.53;;;5.27
15701;BMP180;7950;42.744;23.174;2023-02-15T09:39:53;95724.97;;;5.31
15701;BMP180;7950;42.744;23.174;2023-02-15T09:43:22;95723.31;;;5.23
15701;BMP180;7950;42.744;23.174;2023-02-15T09:46:19;95722.50;;;5.23
15701;BMP180;7950;42.744;23.174;2023-02-15T09:48:54;95723.72;;;5.27
15701;BMP180;7950;42.744;23.174;2023-02-15T09:51:56;95715.06;;;5.41
15701;BMP180;7950;42.744;23.174;2023-02-15T09:54:43;95717.66;;;5.41
15701;BMP180;7950;42.744;23.174;2023-02-15T09:57:27;95720.25;;;5.41
15701;BMP180;7950;42.744;23.174;2023-02-15T10:00:08;95719.91;;;5.44
15701;BMP180;7950;42.744;23.174;2023-02-15T10:02:57;95721.34;;;5.74
15701;BMP180;7950;42.744;23.174;2023-02-15T10:05:45;95712.09;;;6.20
15701;BMP180;7950;42.744;23.174;2023-02-15T10:11:54;95709.22;;;6.08
15701;BMP180;7950;42.744;23.174;2023-02-15T10:14:53;95711.81;;;6.08
15701;BMP180;7950;42.744;23.174;2023-02-15T10:17:41;95709.06;;;5.89
15701;BMP180;7950;42.744;23.174;2023-02-15T10:20:23;95710.25;;;5.86
15701;BMP180;7950;42.744;23.174;2023-02-15T10:23:22;95705.03;;;5.59
15701;BMP180;7950;42.744;23.174;2023-02-15T10:26:07;95696.31;;;5.73
15701;BMP180;7950;42.744;23.174;2023-02-15T10:28:47;95703.13;;;5.95
15701;BMP180;7950;42.744;23.174;2023-02-15T10:31:24;95690.25;;;5.87
15701;BMP180;7950;42.744;23.174;2023-02-15T10:34:16;95690.84;;;5.89
15701;BMP180;7950;42.744;23.174;2023-02-15T10:37:06;95689.34;;;5.80
15701;BMP180;7950;42.744;23.174;2023-02-15T10:39:52;95687.66;;;5.66
15701;BMP180;7950;42.744;23.174;2023-02-15T10:42:35;95683.06;;;5.68
15701;BMP180;7950;42.744;23.174;2023-02-15T10:45:20;95673.38;;;5.83
15701;BMP180;7950;42.744;23.174;2023-02-15T10:48:27;95675.41;;;5.87
15701;BMP180;7950;42.744;23.174;2023-02-15T10:51:02;95675.44;;;5.94
15701;BMP180;7950;42.744;23.174;2023-02-15T10:54:02;95679.91;;;6.00
15701;BMP180;7950;42.744;23.174;2023-02-15T10:56:42;95675.94;;;6.04
15701;BMP180;7950;42.744;23.174;2023-02-15T10:59:44;95676.53;;;6.06
15701;BMP180;7950;42.744;23.174;2023-02-15T11:02:26;95685.66;;;6.23
15701;BMP180;7950;42.744;23.174;2023-02-15T11:05:24;95683.63;;;6.18
15701;BMP180;7950;42.744;23.174;2023-02-15T11:07:59;95672.59;;;6.16
15701;BMP180;7950;42.744;23.174;2023-02-15T11:10:34;95667.03;;;6.26
15701;BMP180;7950;42.744;23.174;2023-02-15T11:13:10;95674.09;;;6.38
15701;BMP180;7950;42.744;23.174;2023-02-15T11:15:44;95666.47;;;6.37
15701;BMP180;7950;42.744;23.174;2023-02-15T11:18:23;95665.09;;;6.41
15701;BMP180;7950;42.744;23.174;2023-02-15T11:21:04;95666.25;;;6.32
15701;BMP180;7950;42.744;23.174;2023-02-15T11:23:43;95664.91;;;6.42
15701;BMP180;7950;42.744;23.174;2023-02-15T11:26:19;95661.31;;;6.50
15701;BMP180;7950;42.744;23.174;2023-02-15T11:28:55;95664.34;;;6.60
15701;BMP180;7950;42.744;23.174;2023-02-15T11:31:30;95654.56;;;6.62
15701;BMP180;7950;42.744;23.174;2023-02-15T11:34:13;95659.00;;;6.81
15701;BMP180;7950;42.744;23.174;2023-02-15T11:36:44;95662.22;;;6.70
15701;BMP180;7950;42.744;23.174;2023-02-15T11:39:17;95647.31;;;6.64
15701;BMP180;7950;42.744;23.174;2023-02-15T11:41:52;95644.56;;;6.78
15701;BMP180;7950;42.744;23.174;2023-02-15T11:44:29;95634.53;;;6.88
15701;BMP180;7950;42.744;23.174;2023-02-15T11:47:00;95635.97;;;6.91
15701;BMP180;7950;42.744;23.174;2023-02-15T11:49:33;95641.03;;;7.12
15701;BMP180;7950;42.744;23.174;2023-02-15T11:52:07;95639.03;;;7.14
15701;BMP180;7950;42.744;23.174;2023-02-15T11:54:43;95634.00;;;7.19
15701;BMP180;7950;42.744;23.174;2023-02-15T11:57:17;95631.22;;;7.40
15701;BMP180;7950;42.744;23.174;2023-02-15T11:59:57;95628.19;;;7.36
15701;BMP180;7950;42.744;23.174;2023-02-15T12:02:37;95629.00;;;7.50
15701;BMP180;7950;42.744;23.174;2023-02-15T12:05:13;95627.78;;;7.26
15701;BMP180;7950;42.744;23.174;2023-02-15T12:07:48;95621.56;;;7.27
15701;BMP180;7950;42.744;23.174;2023-02-15T12:10:25;95618.75;;;7.42
15701;BMP180;7950;42.744;23.174;2023-02-15T12:13:10;95616.53;;;7.32
15701;BMP180;7950;42.744;23.174;2023-02-15T12:15:44;95612.50;;;7.17
15701;BMP180;7950;42.744;23.174;2023-02-15T12:18:21;95600.09;;;7.25
15701;BMP180;7950;42.744;23.174;2023-02-15T12:21:29;95599.47;;;7.43
15701;BMP180;7950;42.744;23.174;2023-02-15T12:24:10;95606.09;;;7.65
15701;BMP180;7950;42.744;23.174;2023-02-15T12:26:56;95600.06;;;7.71
15701;BMP180;7950;42.744;23.174;2023-02-15T12:29:30;95602.25;;;7.61
15701;BMP180;7950;42.744;23.174;2023-02-15T12:32:28;95599.25;;;7.64
15701;BMP180;7950;42.744;23.174;2023-02-15T12:35:07;95592.63;;;7.61
15701;BMP180;7950;42.744;23.174;2023-02-15T12:37:36;95596.84;;;7.62
15701;BMP180;7950;42.744;23.174;2023-02-15T12:40:21;95578.53;;;7.82
15701;BMP180;7950;42.744;23.174;2023-02-15T12:42:50;95581.94;;;7.89
15701;BMP180;7950;42.744;23.174;2023-02-15T12:45:26;95581.78;;;7.77
15701;BMP180;7950;42.744;23.174;2023-02-15T12:48:21;95560.06;;;7.77
15701;BMP180;7950;42.744;23.174;2023-02-15T12:50:50;95568.06;;;7.88
15701;BMP180;7950;42.744;23.174;2023-02-15T12:53:32;95567.88;;;7.90
15701;BMP180;7950;42.744;23.174;2023-02-15T12:56:03;95558.44;;;7.89
15701;BMP180;7950;42.744;23.174;2023-02-15T12:58:34;95566.25;;;7.89
15701;BMP180;7950;42.744;23.174;2023-02-15T13:01:12;95549.56;;;7.96
15701;BMP180;7950;42.744;23.174;2023-02-15T13:04:18;95559.78;;;8.04
15701;BMP180;7950;42.744;23.174;2023-02-15T13:07:10;95557.44;;;7.83
15701;BMP180;7950;42.744;23.174;2023-02-15T13:09:40;95563.03;;;7.87
15701;BMP180;7950;42.744;23.174;2023-02-15T13:12:20;95554.63;;;7.85
15701;BMP180;7950;42.744;23.174;2023-02-15T13:14:51;95560.78;;;7.97
15701;BMP180;7950;42.744;23.174;2023-02-15T13:17:31;95558.84;;;7.79
15701;BMP180;7950;42.744;23.174;2023-02-15T13:20:06;95555.03;;;7.75
15701;BMP180;7950;42.744;23.174;2023-02-15T13:22:49;95560.63;;;7.79
15701;BMP180;7950;42.744;23.174;2023-02-15T13:25:22;95561.66;;;7.78
15701;BMP180;7950;42.744;23.174;2023-02-15T13:27:55;95557.25;;;7.78
15701;BMP180;7950;42.744;23.174;2023-02-15T13:30:27;95553.06;;;7.71
15701;BMP180;7950;42.744;23.174;2023-02-15T13:33:05;95551.41;;;7.70
15701;BMP180;7950;42.744;23.174;2023-02-15T13:35:43;95550.66;;;7.56
15701;BMP180;7950;42.744;23.174;2023-02-15T13:38:37;95547.63;;;7.59
15701;BMP180;7950;42.744;23.174;2023-02-15T13:41:16;95553.84;;;7.58
15701;BMP180;7950;42.744;23.174;2023-02-15T13:43:56;95558.72;;;7.42
15701;BMP180;7950;42.744;23.174;2023-02-15T13:46:55;95568.53;;;7.53
15701;BMP180;7950;42.744;23.174;2023-02-15T13:49:47;95552.25;;;7.64
15701;BMP180;7950;42.744;23.174;2023-02-15T13:52:22;95563.94;;;7.29
15701;BMP180;7950;42.744;23.174;2023-02-15T13:55:26;95570.38;;;7.07
15701;BMP180;7950;42.744;23.174;2023-02-15T13:58:36;95576.78;;;7.17
15701;BMP180;7950;42.744;23.174;2023-02-15T14:01:15;95579.00;;;7.14
15701;BMP180;7950;42.744;23.174;2023-02-15T14:04:10;95572.78;;;7.08
15701;BMP180;7950;42.744;23.174;2023-02-15T14:07:08;95568.38;;;7.09
15701;BMP180;7950;42.744;23.174;2023-02-15T14:09:55;95575.97;;;7.10
15701;BMP180;7950;42.744;23.174;2023-02-15T14:12:45;95583.19;;;6.95
15701;BMP180;7950;42.744;23.174;2023-02-15T14:15:33;95588.78;;;6.86
15701;BMP180;7950;42.744;23.174;2023-02-15T14:18:17;95594.00;;;6.73
15701;BMP180;7950;42.744;23.174;2023-02-15T14:21:04;95588.97;;;6.65
15701;BMP180;7950;42.744;23.174;2023-02-15T14:23:52;95598.00;;;6.69
15701;BMP180;7950;42.744;23.174;2023-02-15T14:26:56;95592.53;;;6.51
15701;BMP180;7950;42.744;23.174;2023-02-15T14:29:45;95595.38;;;6.56
15701;BMP180;7950;42.744;23.174;2023-02-15T14:32:41;95595.97;;;6.58
15701;BMP180;7950;42.744;23.174;2023-02-15T14:35:16;95588.72;;;6.47
15701;BMP180;7950;42.744;23.174;2023-02-15T14:37:52;95590.50;;;6.40
15701;BMP180;7950;42.744;23.174;2023-02-15T14:40:50;95582.31;;;6.43
15701;BMP180;7950;42.744;23.174;2023-02-15T14:43:48;95588.50;;;6.48
15701;BMP180;7950;42.744;23.174;2023-02-15T14:46:29;95591.94;;;6.55
15701;BMP180;7950;42.744;23.174;2023-02-15T14:49:08;95589.09;;;6.37
15701;BMP180;7950;42.744;23.174;2023-02-15T14:54:58;95587.38;;;6.10
15701;BMP180;7950;42.744;23.174;2023-02-15T14:57:32;95582.41;;;6.15
15701;BMP180;7950;42.744;23.174;2023-02-15T15:00:37;95580.56;;;6.16
15701;BMP180;7950;42.744;23.174;2023-02-15T15:03:25;95580.56;;;6.09
15701;BMP180;7950;42.744;23.174;2023-02-15T15:05:56;95580.69;;;5.88
15701;BMP180;7950;42.744;23.174;2023-02-15T15:08:36;95580.47;;;5.90
15701;BMP180;7950;42.744;23.174;2023-02-15T15:11:45;95588.25;;;5.83
15701;BMP180;7950;42.744;23.174;2023-02-15T15:14:40;95591.50;;;5.64
15701;BMP180;7950;42.744;23.174;2023-02-15T15:17:17;95601.03;;;5.51
15701;BMP180;7950;42.744;23.174;2023-02-15T15:20:13;95592.78;;;5.47
15701;BMP180;7950;42.744;23.174;2023-02-15T15:22:44;95585.72;;;5.35
15701;BMP180;7950;42.744;23.174;2023-02-15T15:25:43;95592.84;;;5.26